Time;durP1;ratioP1;P1;durP2;ratioP2;P2;SDS_P1;SDS_P2;PMS_P1;PMS_P2;Temp;Humidity;BMP_temperature;BMP_pressure;BME280_temperature;BME280_humidity;BME280_pressure;Samples;Min_cycle;Max_cycle;Signal;HPM_P1;HPM_P2
2022/10/24 00:02:29;;;;;;;;;;;;;;;18.42;66.63;100735.13;5394558;32;34985;-79
2022/10/24 00:05:31;;;;;;;;;;;;;;;18.26;67.45;100732.63;5389244;32;34941;-80
2022/10/24 00:08:33;;;;;;;;;;;;;;;18.18;67.74;100737.59;5367532;32;34845;-81
2022/10/24 00:11:37;;;;;;;;;;;;;;;17.42;70.06;100742.44;5393159;32;35973;-79
2022/10/24 00:14:39;;;;;;;;;;;;;;;18.04;68.14;100742.97;5384615;32;34976;-80
2022/10/24 00:17:41;;;;;;;;;;;;;;;17.83;69.15;100729.22;5396372;32;45982;-82
2022/10/24 00:20:42;;;;;;;;;;;;;;;17.21;71.65;100718.91;5379462;32;35393;-80
2022/10/24 00:23:45;;;;;;;;;;;;;;;17.57;70.46;100733.47;5402574;32;33992;-81
2022/10/24 00:26:46;;;;;;;;;;;;;;;18.11;67.97;100738.94;5404239;32;35230;-80
2022/10/24 00:29:48;;;;;;;;;;;;;;;18.05;67.42;100732.22;5385763;32;34480;-80
2022/10/24 00:32:51;;;;;;;;;;;;;;;17.63;69.99;100734.91;5394635;32;34853;-78
2022/10/24 00:35:52;;;;;;;;;;;;;;;17.93;68.35;100732.16;5361432;32;34700;-81
2022/10/24 00:38:54;;;;;;;;;;;;;;;17.91;68.30;100728.75;5407500;32;34701;-80
2022/10/24 00:41:57;;;;;;;;;;;;;;;18.18;66.84;100739.41;5381943;32;35783;-80
2022/10/24 00:44:59;;;;;;;;;;;;;;;18.07;67.35;100726.78;5409625;32;35204;-82
2022/10/24 00:48:01;;;;;;;;;;;;;;;17.85;68.42;100727.31;5390423;32;35005;-80
2022/10/24 00:51:13;;;;;;;;;;;;;;;17.79;68.34;100728.56;5383170;32;35287;-81
2022/10/24 00:54:16;;;;;;;;;;;;;;;17.83;68.89;100722.09;5407817;32;44415;-80
2022/10/24 00:57:26;;;;;;;;;;;;;;;17.73;68.53;100718.31;5395743;32;34496;-81
2022/10/24 01:00:29;;;;;;;;;;;;;;;17.93;67.79;100718.84;5415123;32;35184;-80
2022/10/24 01:03:31;;;;;;;;;;;;;;;17.91;67.16;100718.97;5389252;32;34824;-80
2022/10/24 01:06:33;;;;;;;;;;;;;;;17.35;70.13;100710.06;5382389;32;34647;-80
2022/10/24 01:09:54;;;;;;;;;;;;;;;17.72;68.33;100707.78;5371439;32;34885;-80
2022/10/24 01:12:59;;;;;;;;;;;;;;;17.20;70.54;100709.22;5376573;32;35007;-79
2022/10/24 01:16:10;;;;;;;;;;;;;;;17.51;69.62;100705.50;5394977;32;35356;-80
2022/10/24 01:19:35;;;;;;;;;;;;;;;17.76;68.57;100710.12;5389931;32;44596;-78
2022/10/24 01:22:40;;;;;;;;;;;;;;;16.89;71.64;100704.06;5383947;32;34772;-80
2022/10/24 01:25:45;;;;;;;;;;;;;;;17.32;70.77;100707.59;5396865;32;45609;-80
2022/10/24 01:29:03;;;;;;;;;;;;;;;17.60;68.30;100709.38;5375017;32;34620;-80
2022/10/24 01:32:10;;;;;;;;;;;;;;;17.22;69.71;100712.63;5414062;32;35103;-81
2022/10/24 01:35:12;;;;;;;;;;;;;;;17.01;72.39;100720.12;5351759;32;44780;-80
2022/10/24 01:38:16;;;;;;;;;;;;;;;17.14;71.53;100724.69;5389751;32;34940;-80
2022/10/24 01:41:20;;;;;;;;;;;;;;;17.28;70.01;100714.91;5385065;32;35677;-80
2022/10/24 01:44:22;;;;;;;;;;;;;;;16.59;73.62;100699.59;5379613;32;34962;-80
2022/10/24 01:47:32;;;;;;;;;;;;;;;16.36;74.49;100716.00;5391120;32;35262;-78
2022/10/24 01:50:34;;;;;;;;;;;;;;;17.18;71.12;100700.47;5372579;32;34359;-78
2022/10/24 01:53:36;;;;;;;;;;;;;;;17.53;69.21;100689.47;5403499;32;32911;-79
2022/10/24 01:56:38;;;;;;;;;;;;;;;17.63;68.49;100693.22;5386904;32;35588;-80
2022/10/24 01:59:42;;;;;;;;;;;;;;;17.65;68.40;100694.00;5378871;32;44951;-79
2022/10/24 02:03:00;;;;;;;;;;;;;;;17.35;70.14;100704.75;5386476;32;35281;-79
2022/10/24 02:06:09;;;;;;;;;;;;;;;17.39;69.95;100708.94;5378422;32;34295;-79
2022/10/24 02:09:13;;;;;;;;;;;;;;;17.71;68.42;100712.25;5366052;32;45110;-79
2022/10/24 02:12:15;;;;;;;;;;;;;;;17.19;70.11;100698.66;5383397;32;34620;-78
2022/10/24 02:15:21;;;;;;;;;;;;;;;17.65;68.57;100687.84;5390213;32;34770;-80
2022/10/24 02:18:22;;;;;;;;;;;;;;;17.02;70.26;100687.28;5377597;32;36023;-78
2022/10/24 02:21:32;;;;;;;;;;;;;;;16.41;74.94;100692.72;5380593;32;34156;-79
2022/10/24 02:24:41;;;;;;;;;;;;;;;15.44;78.46;100687.53;5398969;32;36093;-78
2022/10/24 02:27:52;;;;;;;;;;;;;;;15.59;77.67;100675.25;5394384;32;44890;-79
2022/10/24 02:30:55;;;;;;;;;;;;;;;16.26;75.71;100673.25;5390895;32;34355;-79
2022/10/24 02:33:57;;;;;;;;;;;;;;;16.64;73.32;100673.66;5380565;32;34960;-81
2022/10/24 02:36:59;;;;;;;;;;;;;;;17.12;71.72;100673.44;5392012;32;35064;-79
2022/10/24 02:40:02;;;;;;;;;;;;;;;15.42;80.04;100677.97;5402022;32;35030;-82
2022/10/24 02:43:04;;;;;;;;;;;;;;;16.97;72.69;100676.09;5393039;32;35825;-82
2022/10/24 02:46:06;;;;;;;;;;;;;;;16.76;73.37;100686.22;5398270;32;35035;-80
2022/10/24 02:49:08;;;;;;;;;;;;;;;17.18;71.17;100681.88;5390524;32;35188;-79
2022/10/24 02:52:10;;;;;;;;;;;;;;;17.17;70.46;100672.22;5410826;32;44987;-79
2022/10/24 02:55:12;;;;;;;;;;;;;;;17.39;69.59;100676.16;5372089;32;35520;-80
2022/10/24 02:58:14;;;;;;;;;;;;;;;17.06;69.72;100675.50;5383802;32;35269;-80
2022/10/24 03:01:16;;;;;;;;;;;;;;;17.39;69.43;100676.16;5396990;32;34689;-80
2022/10/24 03:04:18;;;;;;;;;;;;;;;17.35;69.29;100667.56;5379181;32;33865;-78
2022/10/24 03:07:20;;;;;;;;;;;;;;;17.37;69.29;100664.81;5410916;32;35058;-80
2022/10/24 03:10:22;;;;;;;;;;;;;;;17.36;69.02;100669.25;5363858;32;35597;-80
2022/10/24 03:13:24;;;;;;;;;;;;;;;17.45;68.36;100660.72;5393435;32;34469;-79
2022/10/24 03:16:27;;;;;;;;;;;;;;;17.17;69.88;100658.09;5385542;32;34338;-78
2022/10/24 03:19:29;;;;;;;;;;;;;;;17.47;68.22;100660.63;5393952;32;34331;-80
2022/10/24 03:22:31;;;;;;;;;;;;;;;17.21;69.35;100660.47;5402812;32;33420;-78
2022/10/24 03:25:33;;;;;;;;;;;;;;;16.44;73.49;100661.56;5380615;32;34118;-79
2022/10/24 03:28:35;;;;;;;;;;;;;;;16.77;72.16;100656.06;5404339;32;34771;-80
2022/10/24 03:31:37;;;;;;;;;;;;;;;16.53;72.33;100644.25;5388845;32;34716;-80
2022/10/24 03:34:39;;;;;;;;;;;;;;;16.76;72.06;100643.75;5395770;32;35770;-80
2022/10/24 03:37:41;;;;;;;;;;;;;;;16.79;71.33;100643.56;5379738;32;45433;-80
2022/10/24 03:40:43;;;;;;;;;;;;;;;16.65;71.00;100643.50;5391149;32;34971;-79
2022/10/24 03:43:46;;;;;;;;;;;;;;;16.75;71.82;100662.44;5391604;32;35203;-79
2022/10/24 03:46:48;;;;;;;;;;;;;;;16.02;75.09;100658.75;5397517;32;36135;-79
2022/10/24 03:49:50;;;;;;;;;;;;;;;17.02;70.78;100651.94;5400957;32;35950;-79
2022/10/24 03:52:52;;;;;;;;;;;;;;;15.52;76.12;100658.00;5373691;32;35622;-80
2022/10/24 03:55:56;;;;;;;;;;;;;;;16.04;76.36;100655.09;5406068;32;35216;-78
2022/10/24 03:58:58;;;;;;;;;;;;;;;16.09;74.76;100652.16;5383798;32;35894;-78
2022/10/24 04:02:00;;;;;;;;;;;;;;;16.75;70.82;100650.00;5369800;32;34323;-80
2022/10/24 04:05:02;;;;;;;;;;;;;;;17.18;68.84;100662.44;5402454;32;34289;-79
2022/10/24 04:08:04;;;;;;;;;;;;;;;16.88;70.09;100662.53;5364232;32;36115;-80
2022/10/24 04:11:07;;;;;;;;;;;;;;;16.79;70.79;100659.47;5373434;32;34797;-79
2022/10/24 04:14:09;;;;;;;;;;;;;;;16.85;69.82;100668.88;5378334;32;35927;-80
2022/10/24 04:17:11;;;;;;;;;;;;;;;16.74;70.65;100673.97;5388089;32;44717;-80
2022/10/24 04:20:13;;;;;;;;;;;;;;;16.99;69.77;100660.06;5384896;32;34998;-80
2022/10/24 04:23:15;;;;;;;;;;;;;;;16.84;70.31;100676.94;5380367;32;35555;-79
2022/10/24 04:26:17;;;;;;;;;;;;;;;16.96;69.04;100669.09;5398508;32;35094;-81
2022/10/24 04:29:19;;;;;;;;;;;;;;;17.38;67.22;100685.09;5384220;32;35614;-80
2022/10/24 04:32:21;;;;;;;;;;;;;;;16.00;72.35;100681.84;5395371;32;37335;-79
2022/10/24 04:35:24;;;;;;;;;;;;;;;15.40;76.58;100682.50;5376767;32;34387;-80
2022/10/24 04:38:26;;;;;;;;;;;;;;;15.64;75.64;100673.22;5390246;32;34201;-80
2022/10/24 04:41:34;;;;;;;;;;;;;;;16.34;72.30;100659.53;5411811;32;35298;-79
2022/10/24 04:44:36;;;;;;;;;;;;;;;16.46;71.40;100666.78;5375555;32;34841;-80
2022/10/24 04:47:38;;;;;;;;;;;;;;;14.89;77.45;100673.75;5399016;32;36100;-78
2022/10/24 04:50:40;;;;;;;;;;;;;;;16.19;72.82;100656.00;5352481;32;45503;-79
2022/10/24 04:53:42;;;;;;;;;;;;;;;16.23;72.37;100655.72;5393972;32;35445;-80
2022/10/24 04:56:44;;;;;;;;;;;;;;;15.25;75.43;100654.19;5399060;32;35552;-80
2022/10/24 04:59:46;;;;;;;;;;;;;;;15.50;76.16;100659.00;5373106;32;34900;-81
2022/10/24 05:02:48;;;;;;;;;;;;;;;15.74;72.91;100648.88;5376321;32;34202;-80
2022/10/24 05:05:53;;;;;;;;;;;;;;;16.12;72.58;100647.53;5368711;32;34275;-82
2022/10/24 05:08:55;;;;;;;;;;;;;;;15.54;73.43;100650.81;5386117;32;33742;-81
2022/10/24 05:11:57;;;;;;;;;;;;;;;16.52;70.86;100639.88;5397184;32;34735;-79
2022/10/24 05:14:59;;;;;;;;;;;;;;;16.22;71.88;100646.03;5398090;32;34127;-81
2022/10/24 05:18:02;;;;;;;;;;;;;;;15.66;74.09;100652.81;5378317;32;34283;-79
2022/10/24 05:21:04;;;;;;;;;;;;;;;16.12;72.67;100659.94;5365436;32;32848;-79
2022/10/24 05:24:06;;;;;;;;;;;;;;;15.12;77.16;100672.53;5408658;32;35481;-81
2022/10/24 05:27:08;;;;;;;;;;;;;;;15.76;73.09;100681.44;5397687;32;34509;-80
2022/10/24 05:30:10;;;;;;;;;;;;;;;14.89;78.17;100695.78;5396362;32;35162;-79
2022/10/24 05:33:12;;;;;;;;;;;;;;;15.47;74.17;100701.56;5374827;32;44293;-83
2022/10/24 05:36:14;;;;;;;;;;;;;;;15.38;75.91;100687.84;5389589;32;35955;-80
2022/10/24 05:39:16;;;;;;;;;;;;;;;15.58;73.85;100689.41;5385181;32;35731;-80
2022/10/24 05:42:18;;;;;;;;;;;;;;;15.07;77.42;100687.78;5377381;32;35599;-81
2022/10/24 05:45:20;;;;;;;;;;;;;;;15.90;72.94;100695.59;5400010;32;34294;-76
2022/10/24 05:48:21;;;;;;;;;;;;;;;15.11;76.18;100703.44;5388591;32;33801;-78
2022/10/24 05:51:23;;;;;;;;;;;;;;;16.39;71.23;100692.81;5398039;32;35967;-75
2022/10/24 05:58:06;;;;;;;;;;;;;;;16.45;69.82;100712.81;5532492;27;20029;-73
2022/10/24 06:01:08;;;;;;;;;;;;;;;15.54;72.95;100711.72;5287581;32;33805;-71
2022/10/24 06:04:10;;;;;;;;;;;;;;;15.61;73.95;100717.56;5305349;33;44603;-76
2022/10/24 06:07:14;;;;;;;;;;;;;;;15.92;72.29;100719.41;5283160;33;34568;-73
2022/10/24 06:10:16;;;;;;;;;;;;;;;15.04;75.22;100733.81;5299896;33;35463;-74
2022/10/24 06:13:18;;;;;;;;;;;;;;;15.72;73.09;100738.22;5272038;33;34160;-73
2022/10/24 06:16:20;;;;;;;;;;;;;;;15.47;73.36;100731.56;5293466;33;35350;-76
2022/10/24 06:19:23;;;;;;;;;;;;;;;15.38;74.54;100745.28;5275972;33;35019;-80
2022/10/24 06:22:26;;;;;;;;;;;;;;;15.84;72.25;100733.09;5282353;33;34373;-72
2022/10/24 06:25:28;;;;;;;;;;;;;;;15.07;75.02;100738.97;5280233;32;34016;-75
2022/10/24 06:28:30;;;;;;;;;;;;;;;15.51;74.45;100738.37;5277328;33;35506;-79
2022/10/24 06:31:34;;;;;;;;;;;;;;;14.79;76.69;100738.66;5299113;32;34531;-78
2022/10/24 06:34:36;;;;;;;;;;;;;;;15.10;75.95;100735.28;5276257;33;34582;-89
2022/10/24 06:37:38;;;;;;;;;;;;;;;14.87;76.89;100729.38;5295210;33;34209;-74
2022/10/24 06:40:45;;;;;;;;;;;;;;;15.46;74.43;100732.50;5295767;33;44614;-92
2022/10/24 06:43:48;;;;;;;;;;;;;;;15.42;74.53;100739.75;5279651;33;35414;-78
2022/10/24 06:46:49;;;;;;;;;;;;;;;14.97;76.68;100724.50;5298953;33;34204;-78
2022/10/24 06:49:51;;;;;;;;;;;;;;;15.31;74.79;100725.34;5266370;33;34929;-73
2022/10/24 06:52:53;;;;;;;;;;;;;;;15.97;72.10;100714.66;5291022;33;32947;-73
2022/10/24 06:55:58;;;;;;;;;;;;;;;16.46;69.44;100719.84;5287087;33;35342;-76
2022/10/24 06:59:00;;;;;;;;;;;;;;;16.15;71.35;100710.97;5283261;32;34458;-74
2022/10/24 07:02:02;;;;;;;;;;;;;;;16.31;70.62;100697.72;5285036;33;34116;-73
2022/10/24 07:05:10;;;;;;;;;;;;;;;16.23;70.71;100702.63;5280943;33;34056;-78
2022/10/24 07:08:12;;;;;;;;;;;;;;;15.56;73.40;100701.91;5306368;32;44633;-74
2022/10/24 07:11:14;;;;;;;;;;;;;;;16.63;68.91;100703.78;5303755;32;35038;-77
2022/10/24 07:14:16;;;;;;;;;;;;;;;15.47;73.62;100718.31;5300156;32;35157;-71
2022/10/24 07:17:18;;;;;;;;;;;;;;;16.04;72.12;100709.91;5304970;32;35808;-89
2022/10/24 07:20:20;;;;;;;;;;;;;;;16.15;70.62;100708.34;5280222;32;36188;-74
2022/10/24 07:23:22;;;;;;;;;;;;;;;17.20;67.07;100725.16;5309098;32;34284;-74
2022/10/24 07:26:24;;;;;;;;;;;;;;;15.97;71.56;100738.53;5277361;32;34595;-75
2022/10/24 07:29:26;;;;;;;;;;;;;;;15.49;74.20;100753.50;5317038;32;32969;-77
2022/10/24 07:32:28;;;;;;;;;;;;;;;15.40;75.14;100764.59;5288547;32;34365;-76
2022/10/24 07:35:30;;;;;;;;;;;;;;;15.68;74.08;100767.50;5319080;32;34042;-77
2022/10/24 07:38:32;;;;;;;;;;;;;;;15.43;75.77;100770.59;5305170;32;35990;-74
2022/10/24 07:41:35;;;;;;;;;;;;;;;15.10;77.55;100765.25;5301100;32;35258;-76
2022/10/24 07:44:37;;;;;;;;;;;;;;;14.63;80.46;100762.41;5316223;32;34836;-74
2022/10/24 07:47:39;;;;;;;;;;;;;;;14.56;81.14;100738.03;5304807;32;44471;-73
2022/10/24 07:50:42;;;;;;;;;;;;;;;14.56;81.56;100745.97;5317070;32;34201;-76
2022/10/24 07:53:44;;;;;;;;;;;;;;;15.32;76.40;100746.44;5300551;32;34778;-80
2022/10/24 07:56:46;;;;;;;;;;;;;;;15.83;74.76;100744.59;5316066;32;35399;-79
2022/10/24 07:59:48;;;;;;;;;;;;;;;15.61;75.34;100750.19;5302949;32;34174;-72
2022/10/24 08:02:50;;;;;;;;;;;;;;;16.20;73.13;100740.75;5296286;32;34262;-85
2022/10/24 08:05:55;;;;;;;;;;;;;;;14.74;79.20;100757.41;5316561;32;35495;-79
2022/10/24 08:08:57;;;;;;;;;;;;;;;15.75;76.00;100753.94;5308102;32;34311;-71
2022/10/24 08:11:59;;;;;;;;;;;;;;;15.44;75.60;100755.53;5318372;32;35464;-79
2022/10/24 08:15:01;;;;;;;;;;;;;;;14.83;80.16;100750.81;5291060;32;34203;-72
2022/10/24 08:18:03;;;;;;;;;;;;;;;15.47;77.86;100755.41;5305013;32;34289;-80
2022/10/24 08:21:06;;;;;;;;;;;;;;;16.20;73.81;100746.06;5307758;32;36170;-79
2022/10/24 08:24:08;;;;;;;;;;;;;;;15.75;76.48;100754.78;5302895;32;34213;-70
2022/10/24 08:27:10;;;;;;;;;;;;;;;15.73;76.75;100734.63;5296037;32;44836;-72
2022/10/24 08:30:12;;;;;;;;;;;;;;;15.07;79.40;100741.63;5310722;32;35205;-75
2022/10/24 08:33:15;;;;;;;;;;;;;;;15.67;77.85;100752.56;5318549;32;33102;-81
2022/10/24 08:36:22;;;;;;;;;;;;;;;15.81;76.82;100751.78;5307501;32;35045;-79
2022/10/24 08:39:23;;;;;;;;;;;;;;;15.96;76.27;100729.72;5317379;32;35597;-80
2022/10/24 08:42:25;;;;;;;;;;;;;;;15.83;76.32;100735.81;5316262;32;34264;-78
2022/10/24 08:45:56;;;;;;;;;;;;;;;15.81;76.41;100727.09;5307675;32;35482;-79
2022/10/24 08:49:03;;;;;;;;;;;;;;;15.59;76.57;100722.94;5306528;32;33326;-76
2022/10/24 08:52:13;;;;;;;;;;;;;;;15.08;78.27;100716.00;5293860;32;35065;-78
2022/10/24 08:55:19;;;;;;;;;;;;;;;16.12;75.85;100697.91;5307672;32;44375;-70
2022/10/24 08:58:42;;;;;;;;;;;;;;;15.55;77.33;100705.50;5316164;32;44758;-73
2022/10/24 09:01:47;;;;;;;;;;;;;;;16.46;72.78;100688.00;5303065;32;34330;-77
2022/10/24 09:04:50;;;;;;;;;;;;;;;16.58;70.94;100681.97;5307072;32;34344;-72
2022/10/24 09:08:00;;;;;;;;;;;;;;;15.85;74.57;100689.72;5308995;32;35389;-71
2022/10/24 09:11:03;;;;;;;;;;;;;;;16.74;70.50;100681.94;5316280;32;35107;-75
2022/10/24 09:14:31;;;;;;;;;;;;;;;16.19;71.94;100690.47;5294947;32;34548;-76
2022/10/24 09:17:34;;;;;;;;;;;;;;;16.43;70.85;100690.84;5304192;32;37277;-70
2022/10/24 09:20:36;;;;;;;;;;;;;;;16.76;69.48;100707.44;5306266;32;34453;-75
2022/10/24 09:23:38;;;;;;;;;;;;;;;17.00;67.54;100697.16;5304693;32;35359;-75
2022/10/24 09:26:40;;;;;;;;;;;;;;;16.82;68.07;100702.72;5297925;32;46454;-71
2022/10/24 09:29:42;;;;;;;;;;;;;;;16.36;71.13;100711.56;5304260;32;35583;-76
2022/10/24 09:32:44;;;;;;;;;;;;;;;16.75;68.32;100712.84;5301588;32;34252;-82
2022/10/24 09:35:46;;;;;;;;;;;;;;;16.99;67.72;100706.06;5305145;32;35637;-81
2022/10/24 09:38:48;;;;;;;;;;;;;;;16.63;69.63;100714.41;5293557;32;34150;-73
2022/10/24 09:41:50;;;;;;;;;;;;;;;17.60;65.27;100714.72;5317665;32;34285;-73
2022/10/24 09:44:51;;;;;;;;;;;;;;;18.08;63.54;100725.84;5297847;32;35461;-73
2022/10/24 09:47:55;;;;;;;;;;;;;;;17.46;65.45;100730.66;5314690;32;37070;-74
2022/10/24 09:50:57;;;;;;;;;;;;;;;17.14;67.55;100738.81;5303520;32;34354;-70
2022/10/24 09:54:08;;;;;;;;;;;;;;;16.88;68.90;100742.19;5306670;32;34918;-72
2022/10/24 09:57:10;;;;;;;;;;;;;;;17.05;67.80;100739.34;5318300;32;44411;-79
2022/10/24 10:00:22;;;;;;;;;;;;;;;17.28;67.43;100730.84;5309959;32;34225;-76
2022/10/24 10:03:25;;;;;;;;;;;;;;;16.13;72.18;100730.59;5316896;32;35326;-72
2022/10/24 10:06:27;;;;;;;;;;;;;;;16.83;69.08;100729.19;5312014;32;34933;-75
2022/10/24 10:09:30;;;;;;;;;;;;;;;16.17;72.58;100738.28;5313657;32;34107;-74
2022/10/24 10:12:33;;;;;;;;;;;;;;;15.92;71.43;100740.59;5316417;32;35344;-75
2022/10/24 10:15:36;;;;;;;;;;;;;;;15.55;75.08;100731.97;5293370;32;34411;-74
2022/10/24 10:18:38;;;;;;;;;;;;;;;15.42;76.08;100734.44;5308717;32;34469;-76
2022/10/24 10:21:51;;;;;;;;;;;;;;;16.16;72.86;100720.66;5307461;32;44702;-79
2022/10/24 10:24:53;;;;;;;;;;;;;;;16.29;71.75;100712.84;5294620;32;34862;-77
2022/10/24 10:27:55;;;;;;;;;;;;;;;15.10;76.76;100711.47;5295035;32;34244;-77
2022/10/24 10:31:03;;;;;;;;;;;;;;;15.61;74.95;100707.81;5308584;32;34308;-82
2022/10/24 10:34:10;;;;;;;;;;;;;;;16.13;72.97;100712.88;5319200;32;34212;-77
2022/10/24 10:37:22;;;;;;;;;;;;;;;16.84;70.22;100701.69;5303025;32;44485;-82
2022/10/24 10:40:31;;;;;;;;;;;;;;;16.36;71.75;100708.03;5318282;32;34312;-75
2022/10/24 10:43:36;;;;;;;;;;;;;;;16.16;72.93;100699.44;5290660;32;35389;-72
2022/10/24 10:46:43;;;;;;;;;;;;;;;16.53;71.68;100699.97;5313259;32;34317;-76
2022/10/24 10:49:45;;;;;;;;;;;;;;;15.77;75.31;100702.53;5310565;32;44510;-76
2022/10/24 10:52:48;;;;;;;;;;;;;;;16.95;69.29;100698.37;5295066;32;34231;-77
2022/10/24 10:55:59;;;;;;;;;;;;;;;16.68;70.70;100690.22;5303804;32;34092;-85
2022/10/24 10:59:04;;;;;;;;;;;;;;;16.58;72.50;100681.13;5305684;32;36916;-78
2022/10/24 11:02:21;;;;;;;;;;;;;;;16.65;72.56;100680.66;5314582;32;33201;-79
2022/10/24 11:05:43;;;;;;;;;;;;;;;16.31;72.19;100689.75;5303546;32;34476;-81
2022/10/24 11:08:50;;;;;;;;;;;;;;;16.32;72.77;100674.69;5306654;32;44721;-81
2022/10/24 11:11:58;;;;;;;;;;;;;;;16.48;71.68;100670.19;5308991;32;34288;-78
2022/10/24 11:15:18;;;;;;;;;;;;;;;16.70;70.10;100675.97;5313464;32;34383;-73
2022/10/24 11:18:28;;;;;;;;;;;;;;;17.26;69.02;100673.44;5309058;32;35385;-77
2022/10/24 11:21:35;;;;;;;;;;;;;;;16.97;68.97;100670.78;5292758;32;34114;-89
2022/10/24 11:24:41;;;;;;;;;;;;;;;17.09;69.31;100671.00;5278640;32;33209;-86
2022/10/24 11:27:46;;;;;;;;;;;;;;;17.79;66.35;100670.09;5305145;32;44685;-85
2022/10/24 11:31:01;;;;;;;;;;;;;;;18.07;65.58;100666.47;5298272;32;34311;-83
2022/10/24 11:34:03;;;;;;;;;;;;;;;17.55;66.36;100675.13;5305913;32;35363;-83
2022/10/24 11:37:06;;;;;;;;;;;;;;;17.19;68.73;100672.09;5307183;32;35051;-81
2022/10/24 11:40:12;;;;;;;;;;;;;;;17.50;67.15;100665.72;5299380;32;35399;-79
2022/10/24 11:43:17;;;;;;;;;;;;;;;17.19;68.69;100656.16;5312237;32;44789;-73
2022/10/24 11:46:21;;;;;;;;;;;;;;;17.94;65.98;100659.41;5306705;32;35439;-81
2022/10/24 11:49:30;;;;;;;;;;;;;;;16.80;69.46;100647.06;5313156;32;34180;-82
2022/10/24 11:52:34;;;;;;;;;;;;;;;16.84;70.97;100650.37;5301979;32;34419;-81
2022/10/24 11:55:37;;;;;;;;;;;;;;;17.37;68.00;100652.38;5294800;32;34180;-74
2022/10/24 11:59:00;;;;;;;;;;;;;;;17.47;67.96;100648.19;5312836;32;44330;-71
2022/10/24 12:02:02;;;;;;;;;;;;;;;18.26;63.71;100652.81;5306306;32;35579;-81
2022/10/24 12:05:10;;;;;;;;;;;;;;;17.58;67.08;100648.38;5305628;32;34317;-79
2022/10/24 12:08:50;;;;;;;;;;;;;;;16.92;70.60;100646.31;5299386;32;44798;-72
2022/10/24 12:11:52;;;;;;;;;;;;;;;17.19;69.68;100649.06;5267329;33;35618;-70
2022/10/24 12:14:54;;;;;;;;;;;;;;;17.75;66.80;100647.28;5262955;33;33930;-73
2022/10/24 12:17:59;;;;;;;;;;;;;;;18.30;63.74;100645.47;5298676;32;35442;-77
2022/10/24 12:21:09;;;;;;;;;;;;;;;18.25;64.38;100648.44;5325030;32;35189;-73
2022/10/24 12:24:29;;;;;;;;;;;;;;;17.44;68.16;100634.22;5287267;32;43409;-80
2022/10/24 12:27:36;;;;;;;;;;;;;;;17.39;67.58;100629.22;5276798;32;35500;-73
2022/10/24 12:30:38;;;;;;;;;;;;;;;17.26;68.28;100629.16;5312561;32;34227;-77
2022/10/24 12:33:41;;;;;;;;;;;;;;;17.55;66.81;100635.25;5301051;32;44489;-74
2022/10/24 12:37:15;;;;;;;;;;;;;;;18.02;65.79;100622.50;5297306;32;34497;-76
2022/10/24 12:40:36;;;;;;;;;;;;;;;18.73;62.88;100616.78;5286032;32;44577;-82
2022/10/24 12:43:43;;;;;;;;;;;;;;;18.45;62.72;100614.31;5304786;32;34667;-74
2022/10/24 12:46:45;;;;;;;;;;;;;;;18.99;61.19;100616.78;5314577;32;44480;-76
2022/10/24 12:49:47;;;;;;;;;;;;;;;19.34;59.94;100611.62;5300710;32;34371;-76
2022/10/24 12:52:55;;;;;;;;;;;;;;;19.39;59.43;100621.00;5302705;32;35327;-74
2022/10/24 12:55:58;;;;;;;;;;;;;;;18.96;61.02;100622.34;5304162;32;34153;-84
2022/10/24 12:58:59;;;;;;;;;;;;;;;17.70;65.11;100614.81;5322356;32;34299;-74
2022/10/24 13:02:25;;;;;;;;;;;;;;;17.55;66.91;100600.72;5310121;32;35313;-73
2022/10/24 13:05:48;;;;;;;;;;;;;;;17.69;66.69;100586.53;5300017;32;32935;-78
2022/10/24 13:09:09;;;;;;;;;;;;;;;17.84;66.00;100584.72;5315101;32;34682;-78
2022/10/24 13:12:30;;;;;;;;;;;;;;;17.40;67.76;100577.81;5301117;32;44337;-78
2022/10/24 13:15:42;;;;;;;;;;;;;;;18.40;64.18;100580.03;5300298;32;34178;-72
2022/10/24 13:18:47;;;;;;;;;;;;;;;17.84;66.12;100590.88;5310772;32;44438;-76
2022/10/24 13:21:55;;;;;;;;;;;;;;;17.88;66.21;100594.16;5299909;32;34279;-86
2022/10/24 13:24:58;;;;;;;;;;;;;;;18.31;64.56;100589.50;5307887;32;34584;-87
2022/10/24 13:28:18;;;;;;;;;;;;;;;18.86;62.38;100575.03;5293353;32;35618;-85
2022/10/24 13:31:20;;;;;;;;;;;;;;;18.23;64.37;100575.03;5308627;32;34192;-77
2022/10/24 13:34:23;;;;;;;;;;;;;;;19.02;61.47;100573.97;5319341;32;35300;-82
2022/10/24 13:37:26;;;;;;;;;;;;;;;18.03;64.99;100576.34;5308306;32;37454;-82
2022/10/24 13:40:31;;;;;;;;;;;;;;;17.09;69.01;100576.25;5324318;32;34663;-83
2022/10/24 13:43:37;;;;;;;;;;;;;;;18.23;64.72;100569.69;5304520;32;34177;-83
2022/10/24 13:46:59;;;;;;;;;;;;;;;19.68;59.41;100564.72;5309384;32;43418;-81
2022/10/24 13:50:18;;;;;;;;;;;;;;;19.80;58.31;100565.63;5317133;32;34340;-82
2022/10/24 13:53:21;;;;;;;;;;;;;;;19.10;60.88;100571.59;5304123;32;35420;-85
2022/10/24 13:56:35;;;;;;;;;;;;;;;19.21;60.66;100579.69;5323040;32;34382;-83
2022/10/24 13:59:37;;;;;;;;;;;;;;;18.94;61.30;100582.50;5285188;32;813655;-82
2022/10/24 14:02:40;;;;;;;;;;;;;;;18.34;63.31;100583.09;5316207;32;43626;-82
2022/10/24 14:05:44;;;;;;;;;;;;;;;18.40;64.06;100574.69;5314900;32;35730;-84
2022/10/24 14:08:47;;;;;;;;;;;;;;;19.44;59.75;100570.00;5298585;32;34523;-82
2022/10/24 14:12:04;;;;;;;;;;;;;;;19.41;59.64;100570.25;5316051;32;34851;-84
2022/10/24 14:15:15;;;;;;;;;;;;;;;19.11;60.65;100565.31;5294863;32;35357;-83
2022/10/24 14:18:18;;;;;;;;;;;;;;;18.88;61.51;100567.81;5312962;32;43395;-82
2022/10/24 14:21:21;;;;;;;;;;;;;;;18.89;61.69;100568.66;5308045;32;36670;-83
2022/10/24 14:24:23;;;;;;;;;;;;;;;18.55;63.28;100562.16;5312558;32;34343;-82
2022/10/24 14:27:25;;;;;;;;;;;;;;;18.80;62.24;100569.28;5301794;32;34354;-83
2022/10/24 14:30:28;;;;;;;;;;;;;;;18.06;64.50;100557.53;5285659;32;34337;-82
2022/10/24 14:33:46;;;;;;;;;;;;;;;18.80;62.74;100553.31;5303303;32;34329;-83
2022/10/24 14:36:48;;;;;;;;;;;;;;;18.91;61.98;100574.72;5308360;32;36332;-82
2022/10/24 14:39:51;;;;;;;;;;;;;;;18.72;62.81;100566.31;5312435;32;34200;-85
2022/10/24 14:42:53;;;;;;;;;;;;;;;17.70;67.10;100566.09;5308472;32;34469;-86
2022/10/24 14:46:10;;;;;;;;;;;;;;;17.88;66.44;100564.94;5305183;32;35337;-84
2022/10/24 14:49:18;;;;;;;;;;;;;;;18.92;62.40;100569.28;5324445;32;44566;-84
2022/10/24 14:52:23;;;;;;;;;;;;;;;17.91;66.16;100563.88;5310810;32;34159;-84
2022/10/24 14:55:25;;;;;;;;;;;;;;;18.29;65.65;100548.84;5318642;32;34435;-83
2022/10/24 14:58:28;;;;;;;;;;;;;;;17.60;67.69;100555.25;5301713;32;35766;-85
2022/10/24 15:01:30;;;;;;;;;;;;;;;18.11;66.78;100561.59;5307654;32;35301;-85
2022/10/24 15:04:36;;;;;;;;;;;;;;;18.41;64.95;100563.94;5322111;32;34721;-86
2022/10/24 15:07:38;;;;;;;;;;;;;;;17.75;66.84;100554.25;5313659;32;35566;-83
2022/10/24 15:11:03;;;;;;;;;;;;;;;17.75;67.75;100548.09;5324962;32;35016;-84
2022/10/24 15:14:25;;;;;;;;;;;;;;;17.99;66.91;100557.09;5296045;32;34121;-76
2022/10/24 15:17:30;;;;;;;;;;;;;;;19.14;61.84;100568.63;5308260;32;34546;-73
2022/10/24 15:20:35;;;;;;;;;;;;;;;18.29;65.05;100554.16;5313006;32;33845;-88
2022/10/24 15:23:44;;;;;;;;;;;;;;;18.25;64.86;100555.31;5293917;32;33887;-81
2022/10/24 15:26:46;;;;;;;;;;;;;;;18.15;65.95;100567.53;5286179;32;44631;-84
2022/10/24 15:29:48;;;;;;;;;;;;;;;17.44;69.16;100567.81;5311744;32;34495;-83
2022/10/24 15:32:50;;;;;;;;;;;;;;;18.39;65.81;100559.69;5304642;32;34218;-73
2022/10/24 15:35:52;;;;;;;;;;;;;;;18.30;65.41;100560.34;5315239;32;35437;-75
2022/10/24 15:39:01;;;;;;;;;;;;;;;17.99;66.54;100550.91;5304818;32;34489;-72
2022/10/24 15:42:03;;;;;;;;;;;;;;;18.36;65.67;100546.63;5327017;32;35344;-75
2022/10/24 15:45:11;;;;;;;;;;;;;;;18.05;66.35;100550.50;5308192;32;35086;-83
2022/10/24 15:48:13;;;;;;;;;;;;;;;18.53;65.15;100534.78;5320364;32;44606;-79
2022/10/24 15:51:16;;;;;;;;;;;;;;;19.34;61.51;100537.84;5303368;32;34821;-77
2022/10/24 15:54:18;;;;;;;;;;;;;;;19.33;61.14;100535.31;5288780;32;35513;-83